Time;durP1;ratioP1;P1;durP2;ratioP2;P2;SDS_P1;SDS_P2;PMS_P1;PMS_P2;Temp;Humidity;BMP_temperature;BMP_pressure;BME280_temperature;BME280_humidity;BME280_pressure;Samples;Min_cycle;Max_cycle;Signal;HPM_P1;HPM_P2
2022/01/29 00:01:55;;;;;;;15.15;10.08;;;;;;;18.13;38.04;98724.78;1779336;79;20929;-67
2022/01/29 00:04:21;;;;;;;10.65;7.45;;;;;;;17.96;37.45;98730.61;1767500;80;20947;-68
2022/01/29 00:06:51;;;;;;;7.83;4.53;;;;;;;18.01;60.98;98723.16;1781754;79;20990;-66
2022/01/29 00:09:18;;;;;;;5.15;3.67;;;;;;;18.00;39.20;98730.41;1778722;80;20978;-66
2022/01/29 00:11:44;;;;;;;3.80;2.50;;;;;;;17.79;37.75;98730.48;1776016;79;20921;-66
2022/01/29 00:14:11;;;;;;;1.70;1.37;;;;;;;17.70;37.43;98738.60;1782303;79;21131;-66
2022/01/29 00:16:37;;;;;;;1.37;1.00;;;;;;;17.67;37.16;98741.78;1771897;79;20946;-66
2022/01/29 00:19:05;;;;;;;0.78;0.78;;;;;;;17.64;36.71;98744.11;1782562;79;20919;-67
2022/01/29 00:21:31;;;;;;;0.78;0.62;;;;;;;17.56;36.70;98741.77;1777352;79;21021;-67
2022/01/29 00:23:58;;;;;;;0.68;0.68;;;;;;;17.53;36.66;98742.22;1765326;79;20922;-66
2022/01/29 00:26:26;;;;;;;0.98;0.65;;;;;;;17.54;36.59;98753.28;1781145;79;21217;-66
2022/01/29 00:28:52;;;;;;;0.78;0.72;;;;;;;17.35;36.73;98755.20;1781202;80;20919;-66
2022/01/29 00:31:19;;;;;;;2.00;1.72;;;;;;;17.26;36.81;98759.26;1781416;80;21173;-66
2022/01/29 00:33:45;;;;;;;3.80;2.62;;;;;;;17.31;36.32;98764.80;1770939;79;20922;-67
2022/01/29 00:36:12;;;;;;;3.12;2.10;;;;;;;17.25;35.91;98766.53;1781250;79;20931;-66
2022/01/29 00:38:38;;;;;;;3.12;1.65;;;;;;;17.09;35.78;98767.70;1773172;79;21220;-67
2022/01/29 00:41:05;;;;;;;1.42;0.80;;;;;;;19.71;32.11;98767.94;1774143;79;21563;-67
2022/01/29 00:43:32;;;;;;;0.60;0.60;;;;;;;19.05;44.74;98768.16;1708974;82;21522;-67
2022/01/29 00:45:58;;;;;;;1.52;0.80;;;;;;;18.73;47.19;98777.77;1781631;80;20970;-66
2022/01/29 00:48:25;;;;;;;6.47;2.67;;;;;;;18.41;44.20;98783.25;1780000;80;21043;-66
2022/01/29 00:50:51;;;;;;;5.67;3.30;;;;;;;18.00;39.38;98788.79;1782657;79;21206;-67
2022/01/29 00:53:18;;;;;;;4.75;2.90;;;;;;;17.93;40.74;98794.83;1769867;79;22446;-67
2022/01/29 00:55:45;;;;;;;3.50;2.12;;;;;;;17.78;38.20;98804.16;1770825;79;20864;-66
2022/01/29 00:58:11;;;;;;;1.85;1.62;;;;;;;17.43;38.66;98803.27;1776210;79;20926;-67
2022/01/29 01:00:37;;;;;;;2.12;1.70;;;;;;;17.53;40.72;98802.72;1776941;79;20931;-66
2022/01/29 01:03:04;;;;;;;1.20;0.90;;;;;;;17.57;38.10;98785.09;1782399;79;21125;-66
2022/01/29 01:05:30;;;;;;;1.12;1.05;;;;;;;17.59;37.65;98795.09;1781625;80;21476;-66
2022/01/29 01:07:58;;;;;;;2.25;1.40;;;;;;;17.53;37.37;98797.34;1780847;78;20931;-66
2022/01/29 01:10:24;;;;;;;2.95;1.67;;;;;;;17.60;37.07;98800.73;1784183;80;21039;-65
2022/01/29 01:12:51;;;;;;;4.80;2.45;;;;;;;17.54;36.93;98811.09;1783307;79;21452;-66
2022/01/29 01:15:18;;;;;;;2.05;1.40;;;;;;;17.54;36.62;98804.37;1785036;78;21149;-66
2022/01/29 01:17:44;;;;;;;2.12;1.00;;;;;;;17.48;36.44;98815.49;1776894;80;20872;-66
2022/01/29 01:20:12;;;;;;;0.82;0.72;;;;;;;17.41;36.46;98820.68;1783843;79;20995;-66
2022/01/29 01:22:38;;;;;;;1.05;0.80;;;;;;;17.44;36.29;98821.56;1778507;78;20875;-68
2022/01/29 01:25:07;;;;;;;1.55;0.80;;;;;;;17.49;36.13;98829.24;1784444;78;20836;-66
2022/01/29 01:27:34;;;;;;;1.22;0.90;;;;;;;17.44;35.96;98818.33;1765695;80;21176;-67
2022/01/29 01:30:00;;;;;;;1.00;0.75;;;;;;;17.39;35.96;98815.52;1781549;78;21007;-66
2022/01/29 01:32:27;;;;;;;1.15;0.90;;;;;;;17.38;36.07;98813.06;1772553;78;21065;-66
2022/01/29 01:34:56;;;;;;;1.77;1.45;;;;;;;17.47;35.70;98827.84;1776541;80;20923;-66
2022/01/29 01:37:36;;;;;;;2.60;1.40;;;;;;;17.46;35.49;98834.25;1778728;80;20927;-65
2022/01/29 01:39:57;;;;;;;3.30;1.90;;;;;;;17.49;35.38;98829.77;1775874;78;21297;-66
2022/01/29 01:42:23;;;;;;;4.67;3.05;;;;;;;17.39;35.11;98837.57;1776199;78;20919;-66
2022/01/29 01:44:55;;;;;;;9.90;5.05;;;;;;;17.24;35.19;98832.59;1784661;78;21053;-69
2022/01/29 01:47:22;;;;;;;11.08;7.20;;;;;;;17.26;35.11;98840.72;1781729;80;20970;-66
2022/01/29 01:49:50;;;;;;;12.33;7.08;;;;;;;17.43;34.64;98834.19;1780076;78;20931;-66
2022/01/29 01:52:17;;;;;;;14.13;6.60;;;;;;;17.45;34.43;98842.02;1785290;78;21802;-66
2022/01/29 01:54:45;;;;;;;8.43;5.00;;;;;;;17.53;34.42;98839.03;1764156;80;20880;-65
2022/01/29 01:57:11;;;;;;;5.45;2.90;;;;;;;17.59;34.24;98844.84;1784771;78;20920;-66
2022/01/29 01:59:37;;;;;;;3.47;1.87;;;;;;;17.60;36.60;98842.42;1778620;78;21461;-66
2022/01/29 02:02:04;;;;;;;1.02;0.82;;;;;;;17.63;34.62;98841.97;1784610;78;21034;-65
2022/01/29 02:04:33;;;;;;;1.27;0.70;;;;;;;17.66;34.46;98859.83;1784744;78;21154;-66
2022/01/29 02:06:59;;;;;;;0.68;0.50;;;;;;;17.69;34.25;98850.47;1785890;79;21076;-66
2022/01/29 02:09:26;;;;;;;0.65;0.50;;;;;;;17.74;34.11;98862.19;1788297;78;20985;-66
2022/01/29 02:11:54;;;;;;;0.68;0.57;;;;;;;17.51;34.35;98857.23;1787296;79;21186;-66
2022/01/29 02:14:24;;;;;;;1.02;0.95;;;;;;;17.57;36.63;98863.88;1775970;78;20978;-67
2022/01/29 02:16:50;;;;;;;2.25;1.15;;;;;;;17.38;35.40;98859.59;1787736;80;21163;-66
2022/01/29 02:19:17;;;;;;;1.32;0.93;;;;;;;17.31;35.37;98867.46;1788236;78;21137;-66
2022/01/29 02:21:44;;;;;;;1.37;1.25;;;;;;;16.98;92.84;98868.70;1787479;80;20915;-66
2022/01/29 02:24:11;;;;;;;1.45;1.20;;;;;;;17.38;100.00;98875.73;1775735;78;20923;-66
2022/01/29 02:26:37;;;;;;;2.30;1.25;;;;;;;17.49;58.94;98885.72;1788116;80;21461;-66
2022/01/29 02:29:04;;;;;;;1.67;0.62;;;;;;;17.43;52.40;98891.17;1788688;78;21133;-66
2022/01/29 02:31:31;;;;;;;4.72;2.08;;;;;;;17.22;60.00;98889.28;1787560;80;20974;-66
2022/01/29 02:33:57;;;;;;;6.62;2.85;;;;;;;17.19;45.94;98899.13;1788748;78;20977;-67
2022/01/29 02:36:23;;;;;;;5.35;3.42;;;;;;;17.14;44.24;98895.48;1787903;80;21019;-65
2022/01/29 02:38:50;;;;;;;6.28;3.52;;;;;;;17.02;42.58;98898.64;1787976;79;20962;-66
2022/01/29 02:41:16;;;;;;;5.03;3.27;;;;;;;16.93;40.74;98897.29;1788513;78;21135;-65
2022/01/29 02:43:47;;;;;;;8.10;4.55;;;;;;;16.88;40.20;98904.69;1788230;78;21020;-66
2022/01/29 02:48:46;;;;;;;16.20;7.30;;;;;;;16.67;40.15;98914.52;1787988;80;20903;-67
2022/01/29 02:51:13;;;;;;;14.15;7.50;;;;;;;16.64;39.81;98922.50;1789046;78;21071;-66
2022/01/29 02:53:40;;;;;;;16.75;7.70;;;;;;;16.61;39.47;98919.44;1788205;78;21797;-66
2022/01/29 02:56:08;;;;;;;13.65;7.65;;;;;;;16.58;39.42;98928.75;1787840;80;20914;-66
2022/01/29 02:58:35;;;;;;;10.55;5.65;;;;;;;16.77;39.03;98930.11;1765588;78;20840;-66
2022/01/29 03:01:02;;;;;;;9.55;5.10;;;;;;;16.82;38.66;98931.61;1787907;80;21002;-66
2022/01/29 03:03:29;;;;;;;7.55;3.83;;;;;;;16.79;38.51;98939.59;1775883;78;20958;-66
2022/01/29 03:05:55;;;;;;;10.45;4.85;;;;;;;16.82;38.27;98941.84;1789102;78;21619;-67
2022/01/29 03:08:22;;;;;;;9.75;4.47;;;;;;;16.87;38.04;98942.53;1774932;79;20920;-66
2022/01/29 03:10:48;;;;;;;8.18;4.20;;;;;;;16.81;37.85;98953.64;1774125;79;20907;-66
2022/01/29 03:13:16;;;;;;;6.67;3.47;;;;;;;16.92;37.59;98949.40;1766865;79;21435;-67
2022/01/29 03:15:42;;;;;;;4.62;1.98;;;;;;;16.94;37.24;98947.30;1774124;79;20951;-66
2022/01/29 03:18:09;;;;;;;2.95;1.32;;;;;;;17.00;37.16;98956.62;1773158;81;21155;-67
2022/01/29 03:20:35;;;;;;;1.50;0.80;;;;;;;17.06;41.71;98950.36;1774198;79;20840;-66
2022/01/29 03:23:02;;;;;;;1.70;0.98;;;;;;;17.12;36.82;98951.33;1767297;79;20930;-66
2022/01/29 03:25:29;;;;;;;2.25;0.80;;;;;;;17.12;36.26;98960.73;1774102;79;21548;-66
2022/01/29 03:27:56;;;;;;;1.95;0.90;;;;;;;16.67;36.62;98960.18;1773688;81;21041;-67
2022/01/29 03:30:22;;;;;;;1.95;0.95;;;;;;;16.21;37.43;98962.42;1773075;79;21153;-66
2022/01/29 03:32:48;;;;;;;3.37;1.17;;;;;;;16.17;37.27;98970.59;1769956;79;21426;-66
2022/01/29 03:35:16;;;;;;;4.05;1.10;;;;;;;16.14;37.19;98967.03;1773949;79;20899;-65
2022/01/29 03:37:42;;;;;;;1.32;0.93;;;;;;;16.14;37.02;98964.34;1773304;81;20966;-66
2022/01/29 03:40:09;;;;;;;1.72;0.90;;;;;;;16.11;36.61;98976.85;1773241;79;20880;-65
2022/01/29 03:43:26;;;;;;;2.45;1.32;;;;;;;16.12;36.31;98970.42;1773873;79;21450;-65
2022/01/29 03:45:09;;;;;;;4.33;1.70;;;;;;;16.10;35.32;98985.41;1759206;79;20928;-65
2022/01/29 03:47:36;;;;;;;3.72;1.85;;;;;;;16.04;35.45;98980.39;1762826;79;20930;-66
2022/01/29 03:50:04;;;;;;;4.60;2.30;;;;;;;15.97;35.56;98987.67;1774207;79;20900;-67
2022/01/29 03:52:32;;;;;;;6.53;3.30;;;;;;;15.95;35.18;98979.54;1772426;81;20930;-66
2022/01/29 03:54:58;;;;;;;5.75;3.00;;;;;;;15.85;34.91;98974.63;1767081;79;21222;-66
2022/01/29 03:57:24;;;;;;;5.80;2.77;;;;;;;15.85;34.52;99002.00;1773079;81;21002;-66
2022/01/29 03:59:51;;;;;;;7.58;2.65;;;;;;;15.88;34.22;98999.69;1774179;79;20888;-66
2022/01/29 04:02:17;;;;;;;3.72;1.65;;;;;;;15.87;34.12;99002.59;1774848;79;20884;-66
2022/01/29 04:04:44;;;;;;;2.58;1.20;;;;;;;15.94;33.36;98996.66;1773144;81;21030;-65
2022/01/29 04:07:12;;;;;;;3.65;2.27;;;;;;;15.87;33.88;99014.16;1779120;79;21338;-66
2022/01/29 04:09:39;;;;;;;4.85;3.00;;;;;;;15.61;34.15;99010.27;1791415;78;20875;-67
2022/01/29 04:12:07;;;;;;;3.37;2.33;;;;;;;15.75;33.70;99016.36;1790016;79;20895;-66
2022/01/29 04:14:38;;;;;;;6.20;3.58;;;;;;;15.71;33.33;99013.82;1778582;80;20895;-66
2022/01/29 04:17:03;;;;;;;6.03;3.42;;;;;;;15.82;31.52;99015.83;1790162;79;20915;-65
2022/01/29 04:19:31;;;;;;;2.33;1.85;;;;;;;15.73;30.07;99012.56;1790486;78;21099;-66
2022/01/29 04:21:57;;;;;;;5.12;3.10;;;;;;;15.64;29.48;99021.91;1779069;80;21533;-66
2022/01/29 04:24:23;;;;;;;5.58;4.78;;;;;;;15.53;29.11;99027.93;1772115;80;20981;-66
2022/01/29 04:26:50;;;;;;;6.17;5.40;;;;;;;15.40;28.76;99026.10;1782463;78;20930;-65
2022/01/29 04:29:16;;;;;;;7.67;4.78;;;;;;;15.41;28.60;99030.92;1790603;78;20880;-66
2022/01/29 04:31:55;;;;;;;11.33;6.65;;;;;;;15.34;28.45;99034.15;1790920;78;21925;-67
2022/01/29 04:34:11;;;;;;;9.33;5.67;;;;;;;15.33;28.28;99037.84;1788614;79;20962;-66
2022/01/29 04:36:37;;;;;;;9.58;4.70;;;;;;;15.39;28.13;99038.35;1790304;79;20943;-65
2022/01/29 04:39:04;;;;;;;8.70;4.33;;;;;;;15.26;28.00;99038.39;1789950;80;21021;-66
2022/01/29 04:41:30;;;;;;;7.58;3.52;;;;;;;15.38;27.93;99035.39;1790861;78;21005;-66
2022/01/29 04:43:57;;;;;;;7.47;3.85;;;;;;;15.42;27.68;99037.42;1790889;78;21200;-66
2022/01/29 04:46:23;;;;;;;9.65;4.42;;;;;;;15.42;27.42;99036.59;1790287;80;21652;-66
2022/01/29 04:48:50;;;;;;;7.53;4.00;;;;;;;15.43;27.27;99034.23;1790818;78;21006;-66
2022/01/29 04:51:16;;;;;;;7.55;4.42;;;;;;;15.43;27.40;99042.28;1790037;80;20938;-66
2022/01/29 04:53:42;;;;;;;8.18;5.25;;;;;;;15.61;27.18;99042.95;1790301;79;20915;-66
2022/01/29 04:56:09;;;;;;;11.85;6.45;;;;;;;15.61;27.12;99054.51;1791282;78;21156;-66
2022/01/29 04:58:35;;;;;;;9.70;5.37;;;;;;;15.65;27.15;99058.91;1790370;79;20828;-67
2022/01/29 05:01:03;;;;;;;7.83;4.20;;;;;;;15.64;27.20;99060.79;1766401;80;21493;-64
2022/01/29 05:03:30;;;;;;;7.37;4.25;;;;;;;15.60;26.59;99061.41;1762952;80;20975;-65
2022/01/29 05:05:57;;;;;;;5.70;2.92;;;;;;;15.48;26.57;99073.32;1776206;80;21047;-67
2022/01/29 05:08:24;;;;;;;7.45;3.05;;;;;;;15.46;26.66;99070.00;1788155;78;21210;-67
2022/01/29 05:10:51;;;;;;;5.58;3.27;;;;;;;15.55;26.55;99066.07;1787822;79;20931;-67
2022/01/29 05:13:21;;;;;;;7.47;3.67;;;;;;;15.60;26.21;99078.83;1787783;80;20880;-66
2022/01/29 05:16:06;;;;;;;10.63;4.25;;;;;;;15.66;26.19;99084.19;1783091;80;20923;-66
2022/01/29 05:26:57;;;;;;;6.00;3.12;;;;;;;15.55;25.47;99092.88;1788375;78;20931;-66
2022/01/29 05:29:18;;;;;;;5.47;2.92;;;;;;;15.50;25.59;99102.58;1787017;78;20927;-67
2022/01/29 05:31:44;;;;;;;6.05;3.45;;;;;;;15.43;26.27;99103.38;1786886;78;20911;-68
2022/01/29 05:34:11;;;;;;;6.00;3.65;;;;;;;15.46;25.32;99102.71;1787175;78;21900;-65
2022/01/29 05:36:38;;;;;;;6.95;4.10;;;;;;;15.46;25.11;99110.21;1765125;78;37321;-66
2022/01/29 05:39:04;;;;;;;4.08;2.80;;;;;;;15.48;25.01;99117.55;1787776;79;20971;-66
2022/01/29 05:41:32;;;;;;;2.42;1.82;;;;;;;15.43;24.96;99119.47;1787492;78;21504;-66
2022/01/29 05:43:58;;;;;;;2.87;1.30;;;;;;;15.48;24.93;99117.55;1787519;80;21500;-65
2022/01/29 05:46:24;;;;;;;2.27;1.40;;;;;;;15.49;24.97;99120.52;1775942;78;21219;-64
2022/01/29 05:48:51;;;;;;;7.05;3.77;;;;;;;15.48;25.00;99121.57;1787557;79;20915;-65
2022/01/29 05:51:17;;;;;;;4.80;2.45;;;;;;;15.43;24.76;99120.01;1787937;79;21437;-66
2022/01/29 05:53:43;;;;;;;2.77;1.70;;;;;;;15.33;24.56;99123.09;1787545;80;20955;-66
2022/01/29 05:56:10;;;;;;;3.98;1.00;;;;;;;15.38;24.58;99130.53;1775714;78;20926;-67
2022/01/29 05:58:37;;;;;;;3.10;1.62;;;;;;;15.50;24.56;99130.22;1787676;80;21223;-66
2022/01/29 06:01:04;;;;;;;4.33;2.02;;;;;;;15.57;24.29;99140.91;1787989;78;20926;-67
2022/01/29 06:03:30;;;;;;;3.52;1.60;;;;;;;15.56;24.21;99135.27;1787438;80;20955;-67
2022/01/29 06:05:57;;;;;;;3.87;1.55;;;;;;;15.57;24.12;99136.89;1777521;78;21116;-66
2022/01/29 06:08:23;;;;;;;2.65;1.22;;;;;;;15.61;24.20;99143.50;1771815;79;20913;-66
2022/01/29 06:10:49;;;;;;;3.33;1.47;;;;;;;15.70;24.02;99147.07;1766850;79;21135;-67
2022/01/29 06:13:16;;;;;;;4.33;2.75;;;;;;;15.67;24.08;99147.48;1773056;81;20928;-68
2022/01/29 06:15:45;;;;;;;3.75;1.85;;;;;;;15.66;23.91;99152.56;1762044;81;20966;-68
2022/01/29 06:18:18;;;;;;;3.25;1.40;;;;;;;15.68;23.80;99153.67;1759734;79;21505;-67
2022/01/29 06:20:47;;;;;;;3.25;1.27;;;;;;;15.59;24.03;99158.98;1767054;79;20884;-65
2022/01/29 06:23:14;;;;;;;2.50;1.47;;;;;;;15.54;24.04;99163.60;1774672;79;21862;-65
2022/01/29 06:25:41;;;;;;;4.28;1.80;;;;;;;15.56;23.83;99157.54;1761930;81;21474;-64
2022/01/29 06:28:08;;;;;;;4.90;2.10;;;;;;;15.52;23.78;99161.66;1751924;79;20880;-66
2022/01/29 06:30:34;;;;;;;7.53;4.53;;;;;;;15.53;23.85;99166.00;1771900;79;20968;-66
2022/01/29 06:33:10;;;;;;;8.95;4.60;;;;;;;15.54;23.85;99164.95;1767951;81;21043;-66
2022/01/29 06:35:38;;;;;;;10.25;5.53;;;;;;;15.56;23.88;99165.58;1761262;79;21156;-68
2022/01/29 06:38:05;;;;;;;14.03;6.42;;;;;;;15.50;23.71;99166.41;1765840;79;20993;-67
2022/01/29 06:40:33;;;;;;;13.03;7.00;;;;;;;15.50;23.69;99171.77;1762022;79;20928;-69
2022/01/29 06:43:01;;;;;;;17.85;9.63;;;;;;;15.56;23.64;99161.56;1773942;79;20966;-69
2022/01/29 06:45:32;;;;;;;14.90;8.73;;;;;;;15.53;23.83;99167.34;1774903;79;20975;-69
2022/01/29 06:47:56;;;;;;;14.18;7.55;;;;;;;15.53;23.73;99168.68;1760034;81;21200;-67
2022/01/29 06:50:23;;;;;;;9.05;4.47;;;;;;;15.50;23.66;99158.88;1766177;79;20935;-69
2022/01/29 06:52:50;;;;;;;8.05;4.08;;;;;;;15.42;23.57;99165.25;1773061;81;20849;-69
2022/01/29 06:55:16;;;;;;;6.62;3.17;;;;;;;15.38;23.67;99170.20;1772872;81;20949;-67
2022/01/29 06:57:43;;;;;;;8.03;5.58;;;;;;;15.38;23.70;99176.10;1771429;79;20887;-69
2022/01/29 07:00:11;;;;;;;6.97;3.80;;;;;;;15.41;23.78;99176.48;1760756;79;21142;-66
2022/01/29 07:02:37;;;;;;;7.53;3.98;;;;;;;15.46;23.95;99185.27;1773133;79;20970;-68
2022/01/29 07:05:05;;;;;;;8.33;4.37;;;;;;;15.35;24.16;99175.17;1767059;79;20994;-64
2022/01/29 07:07:31;;;;;;;7.85;3.92;;;;;;;15.37;24.21;99180.63;1769091;79;21036;-70
2022/01/29 07:09:59;;;;;;;5.30;2.42;;;;;;;15.40;24.16;99172.69;1790092;80;20914;-65
2022/01/29 07:12:26;;;;;;;4.12;1.55;;;;;;;15.42;24.04;99174.64;1790067;80;21197;-67
2022/01/29 07:14:53;;;;;;;3.05;1.70;;;;;;;15.41;24.07;99164.94;1790758;78;21020;-68
2022/01/29 07:17:22;;;;;;;2.60;1.62;;;;;;;15.44;24.05;99168.03;1791018;78;21429;-71
2022/01/29 07:19:50;;;;;;;4.55;2.72;;;;;;;15.51;23.89;99172.09;1790650;80;20895;-68
2022/01/29 07:22:17;;;;;;;8.38;2.77;;;;;;;15.59;23.79;99169.70;1789069;78;20948;-68
2022/01/29 07:24:46;;;;;;;5.87;2.72;;;;;;;15.63;23.68;99167.72;1768974;78;21162;-68
2022/01/29 07:27:13;;;;;;;4.87;2.35;;;;;;;15.65;23.61;99165.65;1790618;78;20931;-67
2022/01/29 07:29:39;;;;;;;3.42;1.98;;;;;;;15.66;23.45;99167.82;1790467;79;21389;-68
2022/01/29 07:32:07;;;;;;;4.05;2.40;;;;;;;15.66;23.52;99170.50;1790727;78;21569;-66
2022/01/29 07:34:34;;;;;;;4.60;2.60;;;;;;;15.74;23.47;99173.78;1778052;80;21006;-68
2022/01/29 07:37:00;;;;;;;4.47;2.75;;;;;;;15.83;23.48;99175.70;1778635;80;21223;-66
2022/01/29 07:39:27;;;;;;;4.80;3.17;;;;;;;15.51;23.79;99182.81;1790372;78;21547;-66
2022/01/29 07:41:54;;;;;;;8.75;3.83;;;;;;;15.51;23.86;99189.52;1790908;78;20971;-68
2022/01/29 07:44:20;;;;;;;9.20;4.53;;;;;;;15.58;23.87;99184.95;1789695;80;21539;-68
2022/01/29 07:46:47;;;;;;;10.03;6.12;;;;;;;15.65;23.61;99193.80;1782242;80;20890;-67
2022/01/29 07:49:13;;;;;;;12.35;6.08;;;;;;;15.72;23.44;99192.47;1790816;78;21145;-66
2022/01/29 07:51:40;;;;;;;8.33;5.33;;;;;;;15.87;23.35;99195.72;1790182;79;20879;-68
2022/01/29 07:54:06;;;;;;;7.67;4.25;;;;;;;15.83;23.32;99196.64;1778400;78;20867;-67
2022/01/29 07:56:33;;;;;;;6.92;3.42;;;;;;;15.86;23.13;99192.72;1778079;80;20957;-68
2022/01/29 07:59:00;;;;;;;5.60;3.20;;;;;;;15.90;23.10;99197.44;1790111;79;21038;-67
2022/01/29 08:01:27;;;;;;;5.20;2.62;;;;;;;16.41;22.51;99197.46;1790244;79;21104;-67
2022/01/29 08:03:53;;;;;;;3.70;2.33;;;;;;;16.51;22.39;99192.45;1777135;78;20922;-66
2022/01/29 08:06:26;;;;;;;6.05;2.50;;;;;;;16.55;22.22;99192.87;1779751;78;20886;-67
2022/01/29 08:08:50;;;;;;;4.08;2.98;;;;;;;16.56;21.95;99195.34;1773697;78;20927;-67
2022/01/29 08:11:18;;;;;;;5.45;2.72;;;;;;;16.65;22.26;99196.75;1766440;79;21483;-68
2022/01/29 08:13:46;;;;;;;6.87;2.50;;;;;;;16.88;22.19;99204.23;1774005;79;21203;-67
2022/01/29 08:16:15;;;;;;;4.80;2.70;;;;;;;17.18;22.00;99196.38;1772922;79;20892;-65
2022/01/29 08:18:43;;;;;;;7.00;2.90;;;;;;;17.42;21.69;99196.87;1746520;80;21064;-70
2022/01/29 08:21:12;;;;;;;5.45;3.17;;;;;;;17.51;21.09;99194.73;1773739;79;20999;-69
2022/01/29 08:23:40;;;;;;;3.77;2.77;;;;;;;17.55;20.94;99199.98;1761831;79;20923;-70
2022/01/29 08:26:06;;;;;;;6.85;3.75;;;;;;;17.62;20.97;99200.77;1768935;79;21133;-68
2022/01/29 08:28:33;;;;;;;5.53;3.42;;;;;;;17.59;20.61;99200.69;1747429;79;21489;-68
2022/01/29 08:31:00;;;;;;;6.53;4.08;;;;;;;17.74;20.87;99202.49;1750913;79;20983;-67
2022/01/29 08:33:26;;;;;;;6.67;3.70;;;;;;;18.06;20.92;99196.45;1756278;79;21028;-65
2022/01/29 08:35:53;;;;;;;6.78;3.80;;;;;;;18.28;20.34;99205.69;1749803;79;20947;-66
2022/01/29 08:38:21;;;;;;;6.15;3.10;;;;;;;18.42;20.30;99199.63;1761987;79;21148;-66
2022/01/29 08:40:47;;;;;;;5.03;2.80;;;;;;;18.64;20.27;99199.98;1773855;79;20923;-66
2022/01/29 08:43:14;;;;;;;4.75;2.83;;;;;;;18.89;20.04;99190.69;1772927;79;21000;-65
2022/01/29 08:45:41;;;;;;;5.80;2.70;;;;;;;19.04;19.91;99189.72;1766268;79;21094;-67
2022/01/29 08:48:07;;;;;;;5.65;2.20;;;;;;;19.19;19.93;99193.31;1769844;79;20937;-65
2022/01/29 08:50:33;;;;;;;2.50;1.52;;;;;;;19.33;19.92;99197.45;1772912;79;21151;-64
2022/01/29 08:53:00;;;;;;;3.33;1.55;;;;;;;19.58;19.80;99192.66;1766595;81;21470;-66
2022/01/29 08:55:27;;;;;;;3.58;1.50;;;;;;;19.75;19.61;99191.96;1768323;79;21253;-67
2022/01/29 08:57:53;;;;;;;3.95;2.17;;;;;;;19.85;19.34;99194.36;1773945;79;20967;-67
2022/01/29 09:00:20;;;;;;;6.37;2.15;;;;;;;19.97;19.37;99196.50;1773341;79;21452;-65
2022/01/29 09:02:46;;;;;;;2.92;1.45;;;;;;;20.08;19.21;99198.37;1773486;79;21157;-71
2022/01/29 09:05:13;;;;;;;5.30;2.10;;;;;;;20.17;19.26;99200.17;1773072;81;20935;-84
2022/01/29 09:07:39;;;;;;;3.17;2.02;;;;;;;20.31;19.30;99200.21;1757611;81;21448;-70
2022/01/29 09:10:06;;;;;;;7.15;3.92;;;;;;;20.40;19.29;99201.48;1785669;78;21010;-67
2022/01/29 09:12:35;;;;;;;5.35;3.40;;;;;;;20.47;19.45;99196.75;1765728;80;20967;-65
2022/01/29 09:15:01;;;;;;;5.12;2.70;;;;;;;20.46;19.29;99196.48;1771884;80;22157;-65
2022/01/29 09:17:28;;;;;;;3.92;2.05;;;;;;;20.31;19.12;99196.16;1780355;78;20985;-66
2022/01/29 09:19:54;;;;;;;3.92;2.22;;;;;;;20.17;19.16;99196.95;1790376;79;20883;-67
2022/01/29 09:22:21;;;;;;;5.35;2.70;;;;;;;20.09;19.12;99195.14;1778177;78;21584;-67
2022/01/29 09:24:47;;;;;;;3.45;2.00;;;;;;;19.93;19.18;99194.00;1790018;79;20931;-68
2022/01/29 09:27:13;;;;;;;3.77;1.95;;;;;;;19.76;19.16;99189.05;1790722;78;21737;-66
2022/01/29 09:29:39;;;;;;;3.75;2.37;;;;;;;19.58;19.35;99182.40;1790772;78;20899;-67
2022/01/29 09:32:07;;;;;;;2.62;1.55;;;;;;;19.49;19.37;99181.95;1778303;78;20900;-65
2022/01/29 09:34:34;;;;;;;3.12;1.37;;;;;;;19.38;19.40;99187.33;1778086;80;20927;-74
2022/01/29 09:37:00;;;;;;;1.75;1.20;;;;;;;19.26;19.49;99187.83;1778347;78;21548;-64
2022/01/29 09:39:26;;;;;;;1.98;1.32;;;;;;;19.12;19.56;99188.56;1790794;78;22359;-64
2022/01/29 09:41:55;;;;;;;3.22;1.45;;;;;;;19.02;19.69;99192.36;1780120;80;20948;-65
2022/01/29 09:44:22;;;;;;;3.70;2.05;;;;;;;18.93;19.73;99188.34;1790276;78;20959;-64
2022/01/29 09:46:51;;;;;;;2.22;1.72;;;;;;;18.81;19.80;99187.50;1773246;79;21465;-64
2022/01/29 09:49:18;;;;;;;3.33;2.15;;;;;;;18.74;19.93;99189.47;1788737;78;20906;-64
2022/01/29 09:51:45;;;;;;;3.95;1.87;;;;;;;18.70;20.07;99187.75;1783972;79;21153;-64
2022/01/29 09:54:13;;;;;;;2.90;1.50;;;;;;;18.65;20.25;99194.36;1778952;78;21033;-60
2022/01/29 09:56:40;;;;;;;2.60;1.52;;;;;;;18.57;20.40;99185.77;1772200;78;21034;-62
2022/01/29 09:59:06;;;;;;;2.65;1.65;;;;;;;18.43;20.36;99189.95;1770821;78;20868;-63
2022/01/29 10:01:34;;;;;;;2.27;1.47;;;;;;;18.25;20.33;99188.64;1768993;79;20970;-62
2022/01/29 10:04:05;;;;;;;3.10;1.52;;;;;;;18.13;20.51;99197.19;1770501;80;21153;-63
2022/01/29 10:06:34;;;;;;;1.85;1.47;;;;;;;17.95;20.49;99187.77;1778067;80;20966;-63
2022/01/29 10:09:06;;;;;;;2.37;1.50;;;;;;;17.75;20.72;99193.91;1786295;79;20935;-63
2022/01/29 10:11:32;;;;;;;2.22;1.50;;;;;;;17.63;21.05;99192.97;1765947;79;20919;-64
2022/01/29 10:14:04;;;;;;;3.77;1.70;;;;;;;17.60;21.29;99193.41;1774150;79;20900;-61
2022/01/29 10:16:32;;;;;;;4.40;2.12;;;;;;;17.60;21.51;99188.86;1772222;79;21832;-66
2022/01/29 10:19:12;;;;;;;3.22;1.90;;;;;;;17.62;21.54;99192.17;1765110;79;20974;-64
2022/01/29 10:21:45;;;;;;;4.35;2.58;;;;;;;17.57;21.71;99177.75;1769247;79;21438;-65
2022/01/29 10:24:14;;;;;;;4.40;2.10;;;;;;;17.53;21.88;99177.87;1773672;79;21478;-66
2022/01/29 10:26:42;;;;;;;3.72;2.15;;;;;;;17.53;22.02;99180.05;1773140;79;20990;-65
2022/01/29 10:29:23;;;;;;;2.40;1.37;;;;;;;17.71;22.31;99184.61;1769438;79;21919;-65
2022/01/29 10:31:54;;;;;;;2.52;1.60;;;;;;;17.99;22.09;99180.88;1773112;79;21576;-67
2022/01/29 10:34:32;;;;;;;2.95;1.77;;;;;;;18.20;21.90;99174.20;1773842;79;20853;-65
2022/01/29 10:37:23;;;;;;;3.22;1.92;;;;;;;18.45;21.80;99167.68;1773988;79;20903;-66
2022/01/29 10:39:56;;;;;;;3.42;2.20;;;;;;;18.69;21.72;99161.05;1774109;79;20919;-67
2022/01/29 10:42:33;;;;;;;3.45;2.12;;;;;;;19.01;21.70;99163.75;1772883;80;21134;-66
2022/01/29 10:45:05;;;;;;;3.02;1.90;;;;;;;19.37;21.62;99158.18;1756417;79;21622;-64
2022/01/29 10:47:53;;;;;;;3.27;2.15;;;;;;;19.90;21.41;99156.67;1768094;79;20955;-64
2022/01/29 10:50:20;;;;;;;2.92;2.00;;;;;;;20.38;21.11;99143.36;1773053;79;20935;-63
2022/01/29 10:52:46;;;;;;;4.05;2.20;;;;;;;20.81;20.61;99147.65;1773514;81;21473;-65
2022/01/29 10:55:12;;;;;;;5.00;3.08;;;;;;;21.13;20.56;99142.55;1761759;79;21215;-63
2022/01/29 10:57:42;;;;;;;6.00;2.45;;;;;;;21.43;20.30;99145.73;1768735;79;20876;-66
2022/01/29 11:00:21;;;;;;;4.72;2.80;;;;;;;21.43;20.19;99142.47;1769649;79;20924;-64
2022/01/29 11:02:48;;;;;;;3.92;2.42;;;;;;;21.32;20.18;99147.99;1773394;81;20935;-65
2022/01/29 11:05:15;;;;;;;5.50;2.42;;;;;;;21.18;20.27;99164.26;1773267;79;21465;-66
2022/01/29 11:07:50;;;;;;;5.47;3.42;;;;;;;21.04;20.45;99158.88;1773337;81;21161;-67
2022/01/29 11:10:14;;;;;;;4.53;3.12;;;;;;;20.83;20.62;99174.73;1770577;78;21511;-66
2022/01/29 11:12:48;;;;;;;5.08;2.72;;;;;;;20.63;20.72;99171.66;1771876;78;21010;-66
2022/01/29 11:15:19;;;;;;;3.33;2.35;;;;;;;20.42;20.79;99176.92;1787603;79;21552;-66
2022/01/29 11:17:46;;;;;;;5.05;2.15;;;;;;;20.20;20.90;99176.22;1784622;79;21485;-65
2022/01/29 11:20:13;;;;;;;3.83;2.45;;;;;;;19.98;21.16;99176.55;1788438;78;21138;-65
2022/01/29 11:22:41;;;;;;;7.00;3.12;;;;;;;19.87;21.35;99161.20;1788683;78;20871;-65
2022/01/29 11:25:11;;;;;;;5.72;3.45;;;;;;;19.92;21.54;99152.41;1787926;78;20911;-65
2022/01/29 11:27:38;;;;;;;5.85;3.00;;;;;;;20.02;21.54;99148.56;1779614;79;20946;-67
2022/01/29 11:30:12;;;;;;;3.60;2.40;;;;;;;20.02;21.57;99149.36;1788315;78;20871;-65
2022/01/29 11:32:55;;;;;;;3.67;2.40;;;;;;;20.08;21.46;99143.02;1786717;79;21173;-65
2022/01/29 11:35:31;;;;;;;4.78;2.00;;;;;;;20.06;21.39;99147.84;1786052;78;21013;-67
2022/01/29 11:38:11;;;;;;;3.60;2.30;;;;;;;20.03;21.29;99132.64;1788511;78;20978;-73
2022/01/29 11:40:44;;;;;;;2.70;1.92;;;;;;;19.89;21.32;99138.86;1777245;78;20903;-63
2022/01/29 11:43:22;;;;;;;3.30;2.05;;;;;;;19.70;21.28;99147.63;1786952;78;20982;-67
2022/01/29 11:45:58;;;;;;;3.92;2.20;;;;;;;19.59;21.35;99145.75;1788245;78;21234;-64